Jerome County Airport

KJER · Idaho, United States

METAR history KJER · Jerome County Airport

Below you see METARs of the last few days. Select a year to browse through older METARs, from the year 2007 onwards.

March 2, 2024

Time Code Weather Temp. Visibility Ceiling Wind METAR/SPECI
13:53
V
2 °C 10 mi - 240° 240° 19 - 29 kt METAR KJER 022053Z AUTO 24019G29KT 10SM FEW120 02/M06 A2953 RMK AO2 PK WND 23035/2021 SLP011 60001 T00171056 55002
12:53
V
2 °C 10 mi - 240° 240° 17 - 24 kt METAR KJER 021953Z AUTO 24017G24KT 10SM CLR 02/M04 A2952 RMK AO2 SLP007 T00171044
11:53
V
1 °C 10 mi 7,000 ft 240° 240° 15 - 22 kt METAR KJER 021853Z AUTO 24015G22KT 10SM OVC070 01/M04 A2954 RMK AO2 PK WND 27033/1800 WSHFT 1813 SNE29 SLP013 P0001 T00061044
11:35
V
1 °C 10 mi 4,300 ft 230° 230° 15 - 22 kt METAR KJER 021835Z AUTO 23015G22KT 10SM FEW005 BKN043 OVC060 01/M04 A2953 RMK AO2 PK WND 27033/1800 WSHFT 1813 SNE29 P0000 T00061044
11:28
M
-1 °C 4 mi 1,700 ft 230° 230° 14 - 24 kt METAR KJER 021828Z AUTO 23014G24KT 4SM -SN SCT007 BKN017 OVC060 M01/M03 A2953 RMK AO2 PK WND 27033/1800 WSHFT 1813 P0000 T10061033
11:25
I
-1 °C 1¼ mi 1,500 ft 220° 220° 10 - 27 kt METAR KJER 021825Z AUTO 22010G27KT 1 1/4SM -SN BR SCT005 BKN015 OVC060 M01/M03 A2953 RMK AO2 PK WND 27033/1800 P0000 T10111028
11:17
L
-1 °C ½ mi 700 ft 240° 240° 20 - 29 kt METAR KJER 021817Z AUTO 24020G29KT 1/2SM SN FZFG SCT004 BKN007 OVC013 M01/M02 A2954 RMK AO2 PK WND 27033/1800 P0000 T10111022
11:09
L
-1 °C ¾ mi 1,300 ft 260° 260° 22 - 33 kt METAR KJER 021809Z AUTO 26022G33KT 3/4SM -SN BR SCT007 BKN013 OVC020 M01/M03 A2954 RMK AO2 PK WND 27033/1800 P0000 T10061028
10:56
L
0 °C ¾ mi 2,500 ft 260° 260° 22 - 28 kt METAR KJER 021756Z AUTO 26022G28KT 3/4SM -SN BR FEW010 OVC025 00/M02 A2954 RMK AO2 PK WND 27028/1756 P0000 T00001022
10:35
I
0 °C 2½ mi 3,500 ft 260° 260° 14 kt METAR KJER 021735Z AUTO 26014KT 2 1/2SM -SN OVC035 00/M03 A2952 RMK AO2 VIS 1 3/4V5 SNB18 P0000 T00001028
09:53
V
1 °C 10 mi 5,500 ft 250° 250° 8 kt METAR KJER 021653Z AUTO 25008KT 10SM FEW029 BKN055 OVC075 01/M02 A2946 RMK AO2 SNB03E27 SLP985 P0000 T00061022
09:33
V
1 °C 10 mi 3,300 ft 240° 240° 8 kt METAR KJER 021633Z AUTO 24008KT 10SM FEW022 BKN033 OVC060 01/M02 A2945 RMK AO2 SNB03E27 P0000 T00111017
09:23
I
1 °C 3 mi 2,700 ft 260° 260° 9 kt METAR KJER 021623Z AUTO 26009KT 3SM -SN FEW018 BKN027 OVC055 01/M02 A2944 RMK AO2 SNB03 P0000 T00111017
09:16
I
1 °C 1¼ mi 2,400 ft 250° 250° 10 kt METAR KJER 021616Z AUTO 25010KT 1 1/4SM -SN FEW019 BKN024 OVC035 01/M02 A2944 RMK AO2 SNB03 P0000 T00111017
09:08
I
1 °C 2½ mi 2,800 ft 260° 260° 13 kt METAR KJER 021608Z AUTO 26013KT 2 1/2SM -SN BKN028 OVC035 01/M02 A2943 RMK AO2 SNB03 P0000 T00111017
08:53
V
1 °C 10 mi 3,800 ft 250° 250° 9 kt METAR KJER 021553Z AUTO 25009KT 10SM OVC038 01/M02 A2946 RMK AO2 SLP985 T00111017
07:53
V
1 °C 10 mi 9,000 ft 230° 230° 8 kt METAR KJER 021453Z AUTO 23008KT 10SM SCT039 OVC090 01/M01 A2942 RMK AO2 SNE09 SLP973 P0000 60008 T00061011 56001
07:14
V
0 °C 9 mi 4,500 ft 210° 210° 7 kt METAR KJER 021414Z AUTO 21007KT 9SM FEW002 OVC045 00/M01 A2940 RMK AO2 SNE09 P0000 T00001006
07:02
I
0 °C 3 mi 1,500 ft 230° 230° 6 - 17 kt METAR KJER 021402Z AUTO 23006G17KT 3SM -SN BR SCT002 OVC015 00/M01 A2940 RMK AO2 PRESFR P0000 T00001006
06:59
I
0 °C 2 mi 800 ft 250° 250° 9 kt METAR KJER 021359Z AUTO 25009KT 2SM -SN BR SCT002 OVC008 00/M01 A2942 RMK AO2 PRESFR P0000 T00001006
06:42
L
0 °C 1 mi 400 ft 270° 270° 15 - 26 kt METAR KJER 021342Z AUTO 27015G26KT 1SM -SN BR VV004 00/M01 A2945 RMK AO2 PK WND 28037/1312 WSHFT 1303 LTG DSNT NE SNB06 TSB20E39 P0008 T00001011
06:37
L
0 °C ¾ mi 400 ft 270° 270° 17 - 26 kt METAR KJER 021337Z AUTO 27017G26KT 3/4SM -TSSN BR VV004 00/M01 A2945 RMK AO2 PK WND 28037/1312 WSHFT 1303 LTG DSNT NE SNB06 TSB20 P0008 T00001011
06:26
L
0 °C ½ mi 600 ft 280° 280° 17 - 32 kt METAR KJER 021326Z AUTO 28017G32KT 1/2SM TSSN FG VV006 00/M01 A2945 RMK AO2 PK WND 28037/1312 WSHFT 1303 LTG DSNT NE SNB06 TSB20 P0007 T00001011
06:18
L
0 °C ¾ mi 700 ft 260° 260° 23 - 37 kt METAR KJER 021318Z AUTO 26023G37KT 3/4SM -SN BR BKN007 BKN037 OVC090 00/M01 A2946 RMK AO2 PK WND 28037/1312 WSHFT 1303 LTG DSNT N AND NE SNB06 P0005 T00001011
06:16
I
1 °C 1 mi 700 ft 270° 270° 24 - 37 kt METAR KJER 021316Z AUTO 27024G37KT 1SM VCTS -SN BR BKN007 BKN075 OVC090 01/M01 A2947 RMK AO2 PK WND 28037/1312 LTG DSNT N AND NE SNB06 P0004 T00061011
06:12
I
1 °C 2 mi 1,900 ft 270° 270° 25 - 37 kt METAR KJER 021312Z AUTO 27025G37KT 2SM VCTS -SN BR SCT007 BKN019 OVC095 01/M01 A2947 RMK AO2 PK WND 28037/1312 LTG DSNT N SNB06 PRESRR P0002 T00061011
05:53
V
2 °C 10 mi 9,500 ft 150° 150° 10 kt METAR KJER 021253Z AUTO 15010KT 10SM FEW080 BKN095 02/00 A2940 RMK AO2 LTG DSNT NW SLP963 T00220000
04:53
V
3 °C 10 mi 7,000 ft 140° 140° 10 kt METAR KJER 021153Z AUTO 14010KT 10SM SCT055 BKN070 03/00 A2942 RMK AO2 RAB28E37 SLP970 P0000 60014 70033 T00280000 10039 20011 56033
03:53
V
2 °C 10 mi 11,000 ft 090° 090° 14 kt METAR KJER 021053Z AUTO 09014KT 10SM FEW065 SCT080 BKN110 02/00 A2944 RMK AO2 SLP974 T00170000
02:53
V
1 °C 10 mi - 110° 110° 13 kt METAR KJER 020953Z AUTO 11013KT 10SM CLR 01/00 A2947 RMK AO2 RAE02UPB02E04 PRESFR SLP986 P0000 T00110000
01:53
V
2 °C 10 mi 4,100 ft 120° 120° 15 kt METAR KJER 020853Z AUTO 12015KT 10SM -RA BKN041 BKN080 OVC100 02/00 A2953 RMK AO2 RAB51 SLP008 P0000 60014 T00170000 56021
00:53
V
2 °C 10 mi - 090° 090° 10 kt METAR KJER 020753Z AUTO 09010KT 10SM FEW026 SCT041 SCT080 02/01 A2955 RMK AO2 RAE45 PRESFR SLP017 P0004 T00170006

March 1, 2024

Time Code Weather Temp. Visibility Ceiling Wind METAR/SPECI
23:53
M
2 °C 9 mi 2,100 ft 100° 100° 5 kt METAR KJER 020653Z AUTO 10005KT 9SM -RA OVC021 02/01 A2960 RMK AO2 SLP034 P0010 T00220006 400500000
23:28
I
2 °C 3 mi 1,600 ft 360° 360° 0 kt METAR KJER 020628Z AUTO 00000KT 3SM -RA BR OVC016 02/01 A2961 RMK AO2 P0008 T00220006
23:20
I
3 °C 2½ mi 1,400 ft 360° 360° 0 kt METAR KJER 020620Z AUTO 00000KT 2 1/2SM RA BKN014 OVC020 03/00 A2961 RMK AO2 P0006 T00280000
22:53
M
3 °C 10 mi 2,600 ft 110° 110° 6 kt METAR KJER 020553Z AUTO 11006KT 10SM -RA OVC026 03/01 A2960 RMK AO2 RAB17 SLP035 P0003 60004 T00280011 10033 20017 55010
22:43
M
3 °C 10 mi 2,600 ft 110° 110° 8 kt METAR KJER 020543Z AUTO 11008KT 10SM -RA OVC026 03/01 A2960 RMK AO2 RAB17 P0003 T00280011
21:53
V
2 °C 10 mi 6,000 ft 110° 110° 11 - 20 kt METAR KJER 020453Z AUTO 11011G20KT 10SM BKN060 OVC080 02/01 A2960 RMK AO2 SLP034 T00220006
20:53
V
2 °C 10 mi 7,500 ft 110° 110° 16 kt METAR KJER 020353Z AUTO 11016KT 10SM FEW032 BKN075 OVC100 02/01 A2960 RMK AO2 SLP036 T00170006
19:53
V
3 °C 10 mi 7,000 ft 120° 120° 11 kt METAR KJER 020253Z AUTO 12011KT 10SM BKN070 BKN085 OVC100 03/01 A2963 RMK AO2 RAE0155 SLP047 P0000 60001 T00280006 56017
18:53
V
2 °C 10 mi 7,000 ft 100° 100° 11 kt METAR KJER 020153Z AUTO 10011KT 10SM -RA SCT037 BKN070 OVC085 02/01 A2965 RMK AO2 RAB04 SLP051 P0001 T00220006
17:53
V
2 °C 10 mi 5,500 ft 100° 100° 10 kt METAR KJER 020053Z AUTO 10010KT 10SM FEW027 OVC055 02/01 A2967 RMK AO2 RAE35 SLP059 P0000 T00220011
17:09
V
3 °C 10 mi 3,500 ft 110° 110° 9 kt METAR KJER 020009Z AUTO 11009KT 10SM -RA FEW015 OVC035 03/01 A2968 RMK AO2 P0000 T00280011
16:53
M
3 °C 9 mi 2,700 ft 110° 110° 7 kt METAR KJER 012353Z AUTO 11007KT 9SM -RA SCT016 SCT021 OVC027 03/01 A2969 RMK AO2 RAB13 SLP065 P0005 60006 T00280011 10050 20006 55017
16:40
M
3 °C 4 mi 2,300 ft 100° 100° 9 kt METAR KJER 012340Z AUTO 10009KT 4SM -RA BR SCT018 OVC023 03/01 A2969 RMK AO2 RAB13 P0004 T00280011
15:53
V
4 °C 10 mi 6,500 ft 090° 090° 10 kt METAR KJER 012253Z AUTO 09010KT 10SM BKN065 OVC080 04/02 A2968 RMK AO2 SLP058 T00440022
14:53
V
4 °C 10 mi 10,000 ft 130° 130° 6 kt METAR KJER 012153Z AUTO 13006KT 10SM FEW050 BKN100 BKN110 04/02 A2971 RMK AO2 RAE19 SLP067 P0000 T00440017
13:53
M
4 °C 8 mi 3,000 ft 180° 180° 9 kt METAR KJER 012053Z AUTO 18009KT 8SM -RA BKN030 OVC038 04/01 A2975 RMK AO2 RAB22 SLP079 P0001 60001 T00390011 58013
13:39
M
3 °C 6 mi 2,800 ft 130° 130° 7 kt METAR KJER 012039Z AUTO 13007KT 6SM -RA BR BKN028 OVC050 03/02 A2976 RMK AO2 RAB22 P0000 T00330017
12:53
V
3 °C 10 mi 4,400 ft 120° 120° 10 kt METAR KJER 011953Z AUTO 12010KT 10SM FEW036 BKN044 OVC055 03/01 A2976 RMK AO2 RAB12E43UPB13E24 SLP090 P0000 T00280011
11:53
V
2 °C 10 mi 4,900 ft 120° 120° 8 kt METAR KJER 011853Z AUTO 12008KT 10SM BKN049 OVC065 02/01 A2979 RMK AO2 UPE1758RAB1758E06 SLP096 P0000 T00170006 $
10:53
V
1 °C 10 mi 5,000 ft 120° 120° 8 kt METAR KJER 011753Z AUTO 12008KT 10SM UP OVC050 01/M01 A2979 RMK AO2 UPB1654E05B23E30B52RAB30E31SNE1654B05E23 SLP094 P0001 60009 T00061006 10011 20000 53005 $
10:27
V
1 °C 9 mi 4,100 ft 120° 120° 6 kt METAR KJER 011727Z AUTO 12006KT 9SM UP FEW019 BKN041 OVC060 01/00 A2979 RMK AO2 UPB1654E05B23SNE1654B05E23 P0001 T00110000 $
09:53
M
1 °C 7 mi 2,700 ft 130° 130° 5 kt METAR KJER 011653Z AUTO 13005KT 7SM -SN OVC027 01/M01 A2979 RMK AO2 UPE06B15E18RAB18E39SNB06E15B39 SLP089 P0001 T00061006 $
09:14
I
1 °C 3 mi 3,700 ft 140° 140° 5 kt METAR KJER 011614Z AUTO 14005KT 3SM -SN BR SCT020 BKN037 OVC045 01/M01 A2977 RMK AO2 UPE06SNB06 P0000 T00061006 $
09:09
I
0 °C 1¾ mi 3,300 ft 120° 120° 5 kt METAR KJER 011609Z AUTO 12005KT 1 3/4SM -SN BR SCT020 OVC033 00/M01 A2977 RMK AO2 UPE06SNB06 P0000 T00001006 $
09:04
I
0 °C 2 mi 2,000 ft 120° 120° 6 kt METAR KJER 011604Z AUTO 12006KT 2SM UP BR BKN020 OVC025 00/M01 A2977 RMK AO2 VIS 1V5 P0000 T00001006 $
08:53
M
0 °C 4 mi 2,000 ft 130° 130° 5 kt METAR KJER 011553Z AUTO 13005KT 4SM UP BR FEW002 BKN020 OVC025 00/M01 A2977 RMK AO2 UPB25SNE25 SLP086 P0001 T00001006 $
08:36
I
0 °C 1¼ mi 2,400 ft 150° 150° 6 kt METAR KJER 011536Z AUTO 15006KT 1 1/4SM UP BR FEW002 BKN024 OVC034 00/M01 A2977 RMK AO2 UPB25SNE25 P0001 T00001006 $
08:23
I
0 °C 1 mi 1,800 ft 150° 150° 6 kt METAR KJER 011523Z AUTO 15006KT 1SM -SN BR BKN018 BKN028 OVC034 00/M01 A2977 RMK AO2 P0001 T00001011 $
08:15
L
0 °C ½ mi 1,400 ft 150° 150° 5 kt METAR KJER 011515Z AUTO 15005KT 1/2SM -SN FG VV014 00/M01 A2977 RMK AO2 P0001 T00001011 $
07:53
L
0 °C ½ mi 900 ft 200° 200° 4 kt METAR KJER 011453Z AUTO 20004KT 1/2SM SN FG FEW004 OVC009 00/M01 A2977 RMK AO2 UPB1357E07RAB01E03SNE1357B07 SLP086 P0004 60006 T00001006 52014 $
07:40
I
0 °C 1¾ mi 1,100 ft 190° 190° 4 kt METAR KJER 011440Z AUTO 19004KT 1 3/4SM -SN BR SCT004 OVC011 00/M01 A2976 RMK AO2 UPB1357E07RAB01E03SNE1357B07 P0003 T00001006 $
07:17
L
1 °C 2 mi 400 ft 180° 180° 4 kt METAR KJER 011417Z AUTO 18004KT 2SM -SN BR BKN004 OVC009 01/M01 A2976 RMK AO2 UPB1357E07RAB01E03SNE1357B07 P0001 T00061006 $
06:59
I
1 °C 3 mi 800 ft 230° 230° 6 kt METAR KJER 011359Z AUTO 23006KT 3SM UP BR FEW002 BKN008 OVC033 01/M01 A2975 RMK AO2 UPB57SNE57 P0000 T00061006 $
06:40
I
1 °C 1¾ mi 900 ft 250° 250° 5 kt METAR KJER 011340Z AUTO 25005KT 1 3/4SM UP BR FEW001 BKN009 OVC023 01/00 A2976 RMK AO2 RAE33UPB33 P0000 T00060000 $
06:33
I
1 °C 2½ mi 2,300 ft 230° 230° 5 kt METAR KJER 011333Z AUTO 23005KT 2 1/2SM UP BR FEW001 SCT012 OVC023 01/00 A2976 RMK AO2 RAE33UPB33 P0000 T00060000 $
06:06
M
1 °C 9 mi 2,300 ft 220° 220° 5 kt METAR KJER 011306Z AUTO 22005KT 9SM -RA BKN023 BKN029 OVC037 01/00 A2974 RMK AO2 P0000 T00110000 $
05:53
I
1 °C 2½ mi 2,500 ft 210° 210° 5 kt METAR KJER 011253Z AUTO 21005KT 2 1/2SM -RA BR BKN025 OVC046 01/00 A2974 RMK AO2 RAB12UPB21E35 SLP071 P0001 T00110000 $
04:53
M
1 °C 10 mi 3,000 ft 260° 260° 4 kt METAR KJER 011153Z AUTO 26004KT 10SM BKN030 BKN049 OVC080 01/00 A2972 RMK AO2 RAB1059E10B30E51 SLP064 P0000 60000 T00110000 10067 20011 52007 $
03:53
V
3 °C 10 mi 7,500 ft 280° 280° 10 kt METAR KJER 011053Z AUTO 28010KT 10SM SCT055 BKN075 OVC090 03/00 A2972 RMK AO2 SLP060 T00280000 $
02:53
V
3 °C 10 mi 11,000 ft 310° 310° 8 kt METAR KJER 010953Z AUTO 31008KT 10SM FEW070 SCT085 BKN110 03/M01 A2970 RMK AO2 SLP052 T00281011 $
01:53
V
3 °C 10 mi 7,500 ft 300° 300° 6 kt METAR KJER 010853Z AUTO 30006KT 10SM FEW065 BKN075 OVC090 03/M01 A2970 RMK AO2 SLP052 T00331006 51003 $
00:53
V
2 °C 10 mi 10,000 ft Var Var 4 kt METAR KJER 010753Z AUTO VRB04KT 10SM BKN100 02/M02 A2970 RMK AO2 SLP058 T00171017

February 29, 2024

Time Code Weather Temp. Visibility Ceiling Wind METAR/SPECI
23:53
V
3 °C 10 mi - 240° 240° 6 kt METAR KJER 010653Z AUTO 24006KT 10SM CLR 03/M01 A2970 RMK AO2 SLP059 T00331011 401331011
22:53
V
7 °C 10 mi - 230° 230° 10 kt METAR KJER 010553Z AUTO 23010KT 10SM CLR 07/M03 A2969 RMK AO2 SLP054 T00671028 10128 20067 53011
21:53
V
9 °C 8 mi - 230° 230° 13 - 20 kt METAR KJER 010453Z AUTO 23013G20KT 8SM CLR 09/M03 A2967 RMK AO2 SLP047 T00891028
20:53
V
9 °C 10 mi 4,200 ft 200° 200° 12 kt METAR KJER 010353Z AUTO 20012KT 10SM OVC042 09/M01 A2966 RMK AO2 SLP044 T00891011
19:53
V
9 °C 7 mi 5,000 ft 220° 220° 8 kt METAR KJER 010253Z AUTO 22008KT 7SM OVC050 09/00 A2965 RMK AO2 SLP043 T00890000 51004
18:53
V
10 °C 10 mi 9,000 ft 270° 270° 9 kt METAR KJER 010153Z AUTO 27009KT 10SM OVC090 10/01 A2965 RMK AO2 SLP041 T01000006
17:53
V
12 °C 10 mi 8,500 ft 240° 240° 13 kt METAR KJER 010053Z AUTO 24013KT 10SM FEW065 OVC085 12/M01 A2964 RMK AO2 PK WND 22027/0026 SLP035 T01221011
16:53
V
12 °C 10 mi 8,500 ft 210° 210° 13 kt METAR KJER 292353Z AUTO 21013KT 10SM OVC085 12/M02 A2964 RMK AO2 PK WND 20026/2316 RAB04E14 SLP036 P0000 60000 T01221017 10133 20044 56024
15:53
V
13 °C 10 mi 9,000 ft 210° 210° 15 - 24 kt METAR KJER 292253Z AUTO 21015G24KT 10SM FEW045 BKN090 OVC110 13/M02 A2966 RMK AO2 PK WND 19028/2217 SLP043 T01281017
14:53
V
13 °C 10 mi 11,000 ft 200° 200° 14 - 24 kt METAR KJER 292153Z AUTO 20014G24KT 10SM OVC110 13/M01 A2968 RMK AO2 SLP049 T01281011
13:53
V
12 °C 10 mi - 180° 180° 13 - 20 kt METAR KJER 292053Z AUTO 18013G20KT 10SM CLR 12/M01 A2972 RMK AO2 SLP065 T01171011 58025
12:53
V
9 °C 10 mi - 160° 160° 10 kt METAR KJER 291953Z AUTO 16010KT 10SM CLR 09/M02 A2976 RMK AO2 SLP084 T00941022
11:53
V
7 °C 10 mi - 070° 070° 8 kt METAR KJER 291853Z AUTO 07008KT 10SM CLR 07/00 A2979 RMK AO2 SLP098 T00670000
10:53
V
4 °C 10 mi - 050° 050° 11 kt METAR KJER 291753Z AUTO 05011KT 10SM CLR 04/M01 A2980 RMK AO2 SLP104 60000 T00441011 10044 20000 58009
09:53
V
3 °C 10 mi 11,000 ft 050° 050° 13 kt METAR KJER 291653Z AUTO 05013KT 10SM SCT100 BKN110 03/M03 A2981 RMK AO2 SLP107 T00281028
08:53
V
1 °C 10 mi 8,000 ft 080° 080° 13 kt METAR KJER 291553Z AUTO 08013KT 10SM BKN080 01/M04 A2983 RMK AO2 SLP115 T00111039
07:53
V
1 °C 10 mi 7,500 ft 060° 060° 16 kt METAR KJER 291453Z AUTO 06016KT 10SM BKN075 01/M04 A2983 RMK AO2 UPB11E20 SLP116 P0000 60000 T00061039 58013
06:53
V
1 °C 10 mi 4,600 ft 060° 060° 17 kt METAR KJER 291353Z AUTO 06017KT 10SM BKN046 OVC060 01/M04 A2986 RMK AO2 SLP123 T00111044
05:53
V
1 °C 10 mi 6,000 ft 050° 050° 16 kt METAR KJER 291253Z AUTO 05016KT 10SM BKN060 OVC075 01/M04 A2987 RMK AO2 SLP123 T00061044
04:53
V
0 °C 10 mi 5,500 ft 060° 060° 20 - 24 kt METAR KJER 291153Z AUTO 06020G24KT 10SM OVC055 00/M04 A2988 RMK AO2 SLP123 T00001044 10000 21011 56016
03:53
V
-1 °C 10 mi 7,000 ft 030° 030° 15 kt METAR KJER 291053Z AUTO 03015KT 10SM OVC070 M01/M04 A2989 RMK AO2 SLP128 T10061044
02:53
V
-1 °C 10 mi 9,500 ft 050° 050° 15 kt METAR KJER 290953Z AUTO 05015KT 10SM OVC095 M01/M04 A2991 RMK AO2 SLP135 T10061044
01:53
V
-1 °C 10 mi - 050° 050° 14 kt METAR KJER 290853Z AUTO 05014KT 10SM FEW080 M01/M04 A2993 RMK AO2 SLP145 T10061039 58014
00:53
V
-1 °C 10 mi - 060° 060° 14 kt METAR KJER 290753Z AUTO 06014KT 10SM CLR M01/M04 A2995 RMK AO2 SLP157 T10061039

February 28, 2024

Time Code Weather Temp. Visibility Ceiling Wind METAR/SPECI
23:53
V
0 °C 10 mi - 050° 050° 14 kt METAR KJER 290653Z AUTO 05014KT 10SM CLR 00/M03 A2997 RMK AO2 SLP163 T00001033 400831033
22:53
V
0 °C 10 mi - 050° 050° 13 kt METAR KJER 290553Z AUTO 05013KT 10SM CLR 00/M03 A2998 RMK AO2 SLP169 T00001033 10083 20000 56005